sensor_id;sensor_type;location;lat;lon;timestamp;P1;durP1;ratioP1;P2;durP2;ratioP2
21729;SDS011;11027;51.030;13.812;2023-03-31T00:01:23;4.18;;;0.90;;
21729;SDS011;11027;51.030;13.812;2023-03-31T00:03:49;2.50;;;0.90;;
21729;SDS011;11027;51.030;13.812;2023-03-31T00:06:15;4.53;;;0.95;;
21729;SDS011;11027;51.030;13.812;2023-03-31T00:08:43;4.10;;;1.00;;
21729;SDS011;11027;51.030;13.812;2023-03-31T00:11:08;3.10;;;0.95;;
21729;SDS011;11027;51.030;13.812;2023-03-31T00:13:34;2.65;;;0.90;;
21729;SDS011;11027;51.030;13.812;2023-03-31T00:16:01;4.00;;;1.17;;
21729;SDS011;11027;51.030;13.812;2023-03-31T00:18:31;4.90;;;1.33;;
21729;SDS011;11027;51.030;13.812;2023-03-31T00:21:07;5.03;;;1.15;;
21729;SDS011;11027;51.030;13.812;2023-03-31T00:23:48;4.75;;;0.93;;
21729;SDS011;11027;51.030;13.812;2023-03-31T00:26:17;3.85;;;1.40;;
21729;SDS011;11027;51.030;13.812;2023-03-31T00:28:42;4.30;;;0.90;;
21729;SDS011;11027;51.030;13.812;2023-03-31T00:31:08;5.25;;;1.17;;
21729;SDS011;11027;51.030;13.812;2023-03-31T00:33:33;4.35;;;1.42;;
21729;SDS011;11027;51.030;13.812;2023-03-31T00:35:58;4.97;;;1.02;;
21729;SDS011;11027;51.030;13.812;2023-03-31T00:38:26;3.08;;;0.98;;
21729;SDS011;11027;51.030;13.812;2023-03-31T00:40:53;8.43;;;1.08;;
21729;SDS011;11027;51.030;13.812;2023-03-31T00:43:39;3.55;;;1.23;;
21729;SDS011;11027;51.030;13.812;2023-03-31T00:46:26;5.65;;;1.02;;
21729;SDS011;11027;51.030;13.812;2023-03-31T00:48:55;2.70;;;0.90;;
21729;SDS011;11027;51.030;13.812;2023-03-31T00:51:22;3.65;;;0.95;;
21729;SDS011;11027;51.030;13.812;2023-03-31T00:53:52;3.72;;;1.00;;
21729;SDS011;11027;51.030;13.812;2023-03-31T00:56:23;5.38;;;1.27;;
21729;SDS011;11027;51.030;13.812;2023-03-31T00:58:50;4.38;;;1.10;;
21729;SDS011;11027;51.030;13.812;2023-03-31T01:01:18;5.32;;;1.10;;
21729;SDS011;11027;51.030;13.812;2023-03-31T01:03:48;3.47;;;0.82;;
21729;SDS011;11027;51.030;13.812;2023-03-31T01:06:14;3.92;;;0.93;;
21729;SDS011;11027;51.030;13.812;2023-03-31T01:08:43;6.57;;;0.80;;
21729;SDS011;11027;51.030;13.812;2023-03-31T01:11:12;6.68;;;1.20;;
21729;SDS011;11027;51.030;13.812;2023-03-31T01:13:40;4.85;;;1.05;;
21729;SDS011;11027;51.030;13.812;2023-03-31T01:16:07;3.85;;;0.90;;
21729;SDS011;11027;51.030;13.812;2023-03-31T01:18:33;4.78;;;0.95;;
21729;SDS011;11027;51.030;13.812;2023-03-31T01:32:33;3.97;;;0.90;;
21729;SDS011;11027;51.030;13.812;2023-03-31T01:46:40;4.57;;;1.30;;
21729;SDS011;11027;51.030;13.812;2023-03-31T01:52:21;4.32;;;0.95;;
21729;SDS011;11027;51.030;13.812;2023-03-31T01:55:21;3.15;;;0.70;;
21729;SDS011;11027;51.030;13.812;2023-03-31T01:57:56;4.18;;;1.20;;
21729;SDS011;11027;51.030;13.812;2023-03-31T02:00:27;4.00;;;1.13;;
21729;SDS011;11027;51.030;13.812;2023-03-31T02:03:03;7.03;;;2.75;;
21729;SDS011;11027;51.030;13.812;2023-03-31T02:05:37;4.97;;;1.45;;
21729;SDS011;11027;51.030;13.812;2023-03-31T02:11:05;6.38;;;1.30;;
21729;SDS011;11027;51.030;13.812;2023-03-31T02:13:31;4.03;;;0.95;;
21729;SDS011;11027;51.030;13.812;2023-03-31T02:15:59;8.75;;;1.10;;
21729;SDS011;11027;51.030;13.812;2023-03-31T02:18:29;4.50;;;1.10;;
21729;SDS011;11027;51.030;13.812;2023-03-31T02:21:01;3.75;;;1.10;;
21729;SDS011;11027;51.030;13.812;2023-03-31T02:23:28;4.60;;;1.33;;
21729;SDS011;11027;51.030;13.812;2023-03-31T02:26:18;6.78;;;1.25;;
21729;SDS011;11027;51.030;13.812;2023-03-31T02:28:45;6.03;;;1.40;;
21729;SDS011;11027;51.030;13.812;2023-03-31T02:31:18;5.05;;;1.20;;
21729;SDS011;11027;51.030;13.812;2023-03-31T02:33:57;5.20;;;1.00;;
21729;SDS011;11027;51.030;13.812;2023-03-31T02:36:22;3.53;;;1.10;;
21729;SDS011;11027;51.030;13.812;2023-03-31T02:38:53;4.68;;;1.30;;
21729;SDS011;11027;51.030;13.812;2023-03-31T02:41:23;7.63;;;1.73;;
21729;SDS011;11027;51.030;13.812;2023-03-31T02:43:48;5.55;;;1.27;;
21729;SDS011;11027;51.030;13.812;2023-03-31T02:46:13;7.45;;;1.23;;
21729;SDS011;11027;51.030;13.812;2023-03-31T02:48:40;9.38;;;2.00;;
21729;SDS011;11027;51.030;13.812;2023-03-31T02:59:41;5.53;;;1.55;;
21729;SDS011;11027;51.030;13.812;2023-03-31T03:05:08;6.72;;;1.65;;
21729;SDS011;11027;51.030;13.812;2023-03-31T03:18:25;5.85;;;1.55;;
21729;SDS011;11027;51.030;13.812;2023-03-31T03:20:50;8.55;;;1.23;;
21729;SDS011;11027;51.030;13.812;2023-03-31T03:23:16;8.82;;;1.27;;
21729;SDS011;11027;51.030;13.812;2023-03-31T03:25:42;5.53;;;1.35;;
21729;SDS011;11027;51.030;13.812;2023-03-31T03:28:08;5.40;;;1.10;;
21729;SDS011;11027;51.030;13.812;2023-03-31T03:30:34;3.28;;;1.23;;
21729;SDS011;11027;51.030;13.812;2023-03-31T03:32:59;8.32;;;1.10;;
21729;SDS011;11027;51.030;13.812;2023-03-31T03:35:25;4.30;;;1.10;;
21729;SDS011;11027;51.030;13.812;2023-03-31T03:37:50;6.15;;;1.20;;
21729;SDS011;11027;51.030;13.812;2023-03-31T03:40:15;6.10;;;1.63;;
21729;SDS011;11027;51.030;13.812;2023-03-31T03:42:41;8.25;;;1.40;;
21729;SDS011;11027;51.030;13.812;2023-03-31T03:45:06;4.80;;;1.27;;
21729;SDS011;11027;51.030;13.812;2023-03-31T03:47:32;4.05;;;1.23;;
21729;SDS011;11027;51.030;13.812;2023-03-31T03:49:57;5.95;;;1.30;;
21729;SDS011;11027;51.030;13.812;2023-03-31T03:52:22;6.32;;;1.48;;
21729;SDS011;11027;51.030;13.812;2023-03-31T03:54:48;3.70;;;1.00;;
21729;SDS011;11027;51.030;13.812;2023-03-31T03:57:13;5.15;;;1.35;;
21729;SDS011;11027;51.030;13.812;2023-03-31T03:59:38;5.90;;;1.20;;
21729;SDS011;11027;51.030;13.812;2023-03-31T04:02:03;5.95;;;1.10;;
21729;SDS011;11027;51.030;13.812;2023-03-31T04:04:30;5.57;;;1.30;;
21729;SDS011;11027;51.030;13.812;2023-03-31T04:06:55;7.68;;;1.48;;
21729;SDS011;11027;51.030;13.812;2023-03-31T04:09:20;5.68;;;1.50;;
21729;SDS011;11027;51.030;13.812;2023-03-31T04:11:45;8.48;;;1.40;;
21729;SDS011;11027;51.030;13.812;2023-03-31T04:14:11;3.90;;;1.55;;
21729;SDS011;11027;51.030;13.812;2023-03-31T04:16:36;3.22;;;1.15;;
21729;SDS011;11027;51.030;13.812;2023-03-31T04:19:02;4.00;;;1.40;;
21729;SDS011;11027;51.030;13.812;2023-03-31T04:21:29;3.00;;;1.00;;
21729;SDS011;11027;51.030;13.812;2023-03-31T04:23:58;5.40;;;1.30;;
21729;SDS011;11027;51.030;13.812;2023-03-31T04:26:26;6.35;;;1.20;;
21729;SDS011;11027;51.030;13.812;2023-03-31T04:29:03;8.70;;;1.60;;
21729;SDS011;11027;51.030;13.812;2023-03-31T04:31:29;5.40;;;1.70;;
21729;SDS011;11027;51.030;13.812;2023-03-31T04:33:54;5.57;;;1.52;;
21729;SDS011;11027;51.030;13.812;2023-03-31T04:36:25;7.38;;;2.05;;
21729;SDS011;11027;51.030;13.812;2023-03-31T04:38:50;7.00;;;1.88;;
21729;SDS011;11027;51.030;13.812;2023-03-31T04:41:18;7.63;;;1.45;;
21729;SDS011;11027;51.030;13.812;2023-03-31T04:43:44;4.63;;;1.48;;
21729;SDS011;11027;51.030;13.812;2023-03-31T04:46:10;5.55;;;1.20;;
21729;SDS011;11027;51.030;13.812;2023-03-31T04:48:35;8.95;;;1.90;;
21729;SDS011;11027;51.030;13.812;2023-03-31T04:51:00;10.23;;;1.70;;
21729;SDS011;11027;51.030;13.812;2023-03-31T04:53:25;5.35;;;1.80;;
21729;SDS011;11027;51.030;13.812;2023-03-31T04:55:51;6.22;;;1.50;;
21729;SDS011;11027;51.030;13.812;2023-03-31T04:58:19;5.55;;;1.45;;
21729;SDS011;11027;51.030;13.812;2023-03-31T05:00:45;5.15;;;1.25;;
21729;SDS011;11027;51.030;13.812;2023-03-31T05:03:13;4.60;;;1.30;;
21729;SDS011;11027;51.030;13.812;2023-03-31T05:05:38;6.25;;;1.80;;
21729;SDS011;11027;51.030;13.812;2023-03-31T05:08:03;6.25;;;1.60;;
21729;SDS011;11027;51.030;13.812;2023-03-31T05:10:31;7.80;;;1.55;;
21729;SDS011;11027;51.030;13.812;2023-03-31T05:12:57;5.50;;;1.70;;
21729;SDS011;11027;51.030;13.812;2023-03-31T05:15:22;5.65;;;1.95;;
21729;SDS011;11027;51.030;13.812;2023-03-31T05:17:51;5.90;;;1.80;;
21729;SDS011;11027;51.030;13.812;2023-03-31T05:20:17;8.88;;;2.10;;
21729;SDS011;11027;51.030;13.812;2023-03-31T05:22:43;7.53;;;1.40;;
21729;SDS011;11027;51.030;13.812;2023-03-31T05:25:09;6.03;;;1.35;;
21729;SDS011;11027;51.030;13.812;2023-03-31T05:27:35;4.93;;;1.42;;
21729;SDS011;11027;51.030;13.812;2023-03-31T05:30:02;4.45;;;1.45;;
21729;SDS011;11027;51.030;13.812;2023-03-31T05:32:28;6.10;;;1.63;;
21729;SDS011;11027;51.030;13.812;2023-03-31T05:34:54;7.07;;;1.60;;
21729;SDS011;11027;51.030;13.812;2023-03-31T05:37:21;4.60;;;1.30;;
21729;SDS011;11027;51.030;13.812;2023-03-31T05:39:48;4.18;;;1.42;;
21729;SDS011;11027;51.030;13.812;2023-03-31T05:42:14;6.95;;;1.48;;
21729;SDS011;11027;51.030;13.812;2023-03-31T05:44:39;8.45;;;1.30;;
21729;SDS011;11027;51.030;13.812;2023-03-31T05:47:04;7.00;;;1.70;;
21729;SDS011;11027;51.030;13.812;2023-03-31T05:49:30;7.95;;;1.60;;
21729;SDS011;11027;51.030;13.812;2023-03-31T05:51:55;6.78;;;1.73;;
21729;SDS011;11027;51.030;13.812;2023-03-31T05:54:20;4.93;;;1.83;;
21729;SDS011;11027;51.030;13.812;2023-03-31T05:56:46;5.82;;;1.50;;
21729;SDS011;11027;51.030;13.812;2023-03-31T05:59:12;10.10;;;1.92;;
21729;SDS011;11027;51.030;13.812;2023-03-31T06:01:37;6.68;;;1.90;;
21729;SDS011;11027;51.030;13.812;2023-03-31T06:04:02;8.15;;;1.83;;
21729;SDS011;11027;51.030;13.812;2023-03-31T06:06:27;8.52;;;1.92;;
21729;SDS011;11027;51.030;13.812;2023-03-31T06:08:53;6.53;;;1.65;;
21729;SDS011;11027;51.030;13.812;2023-03-31T06:11:19;5.75;;;1.30;;
21729;SDS011;11027;51.030;13.812;2023-03-31T06:13:45;6.97;;;2.15;;
21729;SDS011;11027;51.030;13.812;2023-03-31T06:16:11;5.55;;;2.40;;
21729;SDS011;11027;51.030;13.812;2023-03-31T06:18:38;7.50;;;2.70;;
21729;SDS011;11027;51.030;13.812;2023-03-31T06:21:04;7.10;;;1.83;;
21729;SDS011;11027;51.030;13.812;2023-03-31T06:23:30;10.45;;;2.10;;
21729;SDS011;11027;51.030;13.812;2023-03-31T06:25:59;11.82;;;1.80;;
21729;SDS011;11027;51.030;13.812;2023-03-31T06:28:26;14.18;;;2.25;;
21729;SDS011;11027;51.030;13.812;2023-03-31T06:30:58;15.45;;;1.90;;
21729;SDS011;11027;51.030;13.812;2023-03-31T06:33:24;8.93;;;1.80;;
21729;SDS011;11027;51.030;13.812;2023-03-31T06:35:50;10.77;;;2.00;;
21729;SDS011;11027;51.030;13.812;2023-03-31T06:38:15;6.93;;;1.33;;
21729;SDS011;11027;51.030;13.812;2023-03-31T06:40:40;7.70;;;1.42;;
21729;SDS011;11027;51.030;13.812;2023-03-31T06:43:06;6.47;;;1.67;;
21729;SDS011;11027;51.030;13.812;2023-03-31T06:45:31;7.32;;;1.85;;
21729;SDS011;11027;51.030;13.812;2023-03-31T06:47:57;4.53;;;1.60;;
21729;SDS011;11027;51.030;13.812;2023-03-31T06:50:22;10.82;;;1.73;;
21729;SDS011;11027;51.030;13.812;2023-03-31T06:52:47;5.38;;;1.55;;
21729;SDS011;11027;51.030;13.812;2023-03-31T06:55:16;9.60;;;1.63;;
21729;SDS011;11027;51.030;13.812;2023-03-31T06:57:41;7.47;;;1.33;;
21729;SDS011;11027;51.030;13.812;2023-03-31T07:00:07;5.28;;;1.20;;
21729;SDS011;11027;51.030;13.812;2023-03-31T07:02:33;6.82;;;1.80;;
21729;SDS011;11027;51.030;13.812;2023-03-31T07:04:58;7.70;;;1.75;;
21729;SDS011;11027;51.030;13.812;2023-03-31T07:07:23;5.53;;;2.25;;
21729;SDS011;11027;51.030;13.812;2023-03-31T07:09:48;5.28;;;1.55;;
21729;SDS011;11027;51.030;13.812;2023-03-31T07:12:14;6.75;;;1.17;;
21729;SDS011;11027;51.030;13.812;2023-03-31T07:14:39;5.82;;;2.00;;
21729;SDS011;11027;51.030;13.812;2023-03-31T07:17:04;9.48;;;1.77;;
21729;SDS011;11027;51.030;13.812;2023-03-31T07:19:30;8.35;;;1.98;;
21729;SDS011;11027;51.030;13.812;2023-03-31T07:21:55;7.25;;;2.20;;
21729;SDS011;11027;51.030;13.812;2023-03-31T07:24:20;5.43;;;2.20;;
21729;SDS011;11027;51.030;13.812;2023-03-31T07:26:46;10.10;;;2.83;;
21729;SDS011;11027;51.030;13.812;2023-03-31T07:29:11;8.65;;;2.83;;
21729;SDS011;11027;51.030;13.812;2023-03-31T07:31:36;5.30;;;1.80;;
21729;SDS011;11027;51.030;13.812;2023-03-31T07:34:03;4.80;;;1.70;;
21729;SDS011;11027;51.030;13.812;2023-03-31T07:36:28;4.95;;;1.77;;
21729;SDS011;11027;51.030;13.812;2023-03-31T07:38:55;5.40;;;1.40;;
21729;SDS011;11027;51.030;13.812;2023-03-31T07:41:20;7.25;;;1.70;;
21729;SDS011;11027;51.030;13.812;2023-03-31T07:43:46;4.88;;;1.67;;
21729;SDS011;11027;51.030;13.812;2023-03-31T07:46:13;5.05;;;1.52;;
21729;SDS011;11027;51.030;13.812;2023-03-31T07:48:40;5.68;;;1.70;;
21729;SDS011;11027;51.030;13.812;2023-03-31T07:51:05;4.90;;;1.70;;
21729;SDS011;11027;51.030;13.812;2023-03-31T07:53:30;5.35;;;1.60;;
21729;SDS011;11027;51.030;13.812;2023-03-31T07:55:56;4.10;;;1.45;;
21729;SDS011;11027;51.030;13.812;2023-03-31T07:58:21;6.65;;;1.83;;
21729;SDS011;11027;51.030;13.812;2023-03-31T08:00:46;4.88;;;1.70;;
21729;SDS011;11027;51.030;13.812;2023-03-31T08:03:12;6.00;;;1.90;;
21729;SDS011;11027;51.030;13.812;2023-03-31T08:05:37;6.13;;;1.42;;
21729;SDS011;11027;51.030;13.812;2023-03-31T08:08:02;6.95;;;1.60;;
21729;SDS011;11027;51.030;13.812;2023-03-31T08:10:28;7.95;;;2.90;;
21729;SDS011;11027;51.030;13.812;2023-03-31T08:12:53;6.57;;;1.98;;
21729;SDS011;11027;51.030;13.812;2023-03-31T08:15:19;5.05;;;1.70;;
21729;SDS011;11027;51.030;13.812;2023-03-31T08:17:44;4.80;;;2.00;;
21729;SDS011;11027;51.030;13.812;2023-03-31T08:20:10;8.15;;;1.83;;
21729;SDS011;11027;51.030;13.812;2023-03-31T08:22:36;6.35;;;2.00;;
21729;SDS011;11027;51.030;13.812;2023-03-31T08:25:02;5.65;;;1.88;;
21729;SDS011;11027;51.030;13.812;2023-03-31T08:27:35;5.20;;;1.50;;
21729;SDS011;11027;51.030;13.812;2023-03-31T08:30:03;5.88;;;1.35;;
21729;SDS011;11027;51.030;13.812;2023-03-31T08:32:31;6.07;;;1.52;;
21729;SDS011;11027;51.030;13.812;2023-03-31T08:34:56;6.95;;;1.92;;
21729;SDS011;11027;51.030;13.812;2023-03-31T08:37:21;6.75;;;1.73;;
21729;SDS011;11027;51.030;13.812;2023-03-31T08:39:47;6.18;;;1.48;;
21729;SDS011;11027;51.030;13.812;2023-03-31T08:42:14;7.35;;;1.52;;
21729;SDS011;11027;51.030;13.812;2023-03-31T08:44:49;9.48;;;1.95;;
21729;SDS011;11027;51.030;13.812;2023-03-31T08:47:23;6.93;;;1.70;;
21729;SDS011;11027;51.030;13.812;2023-03-31T08:49:52;4.65;;;1.23;;
21729;SDS011;11027;51.030;13.812;2023-03-31T08:52:26;8.07;;;1.70;;
21729;SDS011;11027;51.030;13.812;2023-03-31T08:55:00;7.97;;;2.28;;
21729;SDS011;11027;51.030;13.812;2023-03-31T08:57:37;7.13;;;1.80;;
21729;SDS011;11027;51.030;13.812;2023-03-31T09:00:17;7.18;;;1.98;;
21729;SDS011;11027;51.030;13.812;2023-03-31T09:02:58;7.38;;;1.30;;
21729;SDS011;11027;51.030;13.812;2023-03-31T09:10:47;7.47;;;1.63;;
21729;SDS011;11027;51.030;13.812;2023-03-31T09:16:22;9.80;;;1.88;;
21729;SDS011;11027;51.030;13.812;2023-03-31T09:18:51;6.28;;;1.27;;
21729;SDS011;11027;51.030;13.812;2023-03-31T09:21:27;4.75;;;1.55;;
21729;SDS011;11027;51.030;13.812;2023-03-31T09:24:04;4.78;;;1.50;;
21729;SDS011;11027;51.030;13.812;2023-03-31T09:26:37;4.78;;;1.13;;
21729;SDS011;11027;51.030;13.812;2023-03-31T09:29:15;9.02;;;1.40;;
21729;SDS011;11027;51.030;13.812;2023-03-31T09:31:43;4.07;;;1.17;;
21729;SDS011;11027;51.030;13.812;2023-03-31T09:34:14;4.18;;;1.20;;
21729;SDS011;11027;51.030;13.812;2023-03-31T09:36:45;4.47;;;1.02;;
21729;SDS011;11027;51.030;13.812;2023-03-31T09:39:12;5.05;;;1.25;;
21729;SDS011;11027;51.030;13.812;2023-03-31T09:41:39;3.63;;;1.00;;
21729;SDS011;11027;51.030;13.812;2023-03-31T09:44:12;6.47;;;1.23;;
21729;SDS011;11027;51.030;13.812;2023-03-31T09:46:47;3.42;;;1.33;;
21729;SDS011;11027;51.030;13.812;2023-03-31T09:49:13;5.20;;;1.02;;
21729;SDS011;11027;51.030;13.812;2023-03-31T09:51:45;3.58;;;1.23;;
21729;SDS011;11027;51.030;13.812;2023-03-31T09:54:26;3.47;;;1.02;;
21729;SDS011;11027;51.030;13.812;2023-03-31T09:56:58;4.45;;;1.00;;
21729;SDS011;11027;51.030;13.812;2023-03-31T09:59:33;3.80;;;1.00;;
21729;SDS011;11027;51.030;13.812;2023-03-31T10:02:01;2.55;;;0.93;;
21729;SDS011;11027;51.030;13.812;2023-03-31T10:04:33;3.65;;;0.98;;
21729;SDS011;11027;51.030;13.812;2023-03-31T10:06:59;3.75;;;0.90;;
21729;SDS011;11027;51.030;13.812;2023-03-31T10:09:31;4.28;;;1.40;;
21729;SDS011;11027;51.030;13.812;2023-03-31T10:12:02;4.47;;;1.25;;
21729;SDS011;11027;51.030;13.812;2023-03-31T10:17:04;5.32;;;1.60;;
21729;SDS011;11027;51.030;13.812;2023-03-31T10:19:32;7.85;;;1.58;;
21729;SDS011;11027;51.030;13.812;2023-03-31T10:22:08;4.68;;;1.52;;
21729;SDS011;11027;51.030;13.812;2023-03-31T10:24:41;5.75;;;1.48;;
21729;SDS011;11027;51.030;13.812;2023-03-31T10:29:42;2.78;;;1.10;;
21729;SDS011;11027;51.030;13.812;2023-03-31T10:34:47;4.38;;;1.27;;
21729;SDS011;11027;51.030;13.812;2023-03-31T10:37:13;5.65;;;1.30;;
21729;SDS011;11027;51.030;13.812;2023-03-31T10:39:42;2.72;;;1.10;;
21729;SDS011;11027;51.030;13.812;2023-03-31T10:42:09;4.25;;;1.30;;
21729;SDS011;11027;51.030;13.812;2023-03-31T10:44:38;3.70;;;1.20;;
21729;SDS011;11027;51.030;13.812;2023-03-31T10:47:05;6.20;;;1.85;;
21729;SDS011;11027;51.030;13.812;2023-03-31T10:49:40;6.68;;;1.90;;
21729;SDS011;11027;51.030;13.812;2023-03-31T10:52:20;3.35;;;1.50;;
21729;SDS011;11027;51.030;13.812;2023-03-31T10:54:48;6.15;;;1.40;;
21729;SDS011;11027;51.030;13.812;2023-03-31T10:57:15;3.90;;;1.60;;
21729;SDS011;11027;51.030;13.812;2023-03-31T10:59:46;5.85;;;1.50;;
21729;SDS011;11027;51.030;13.812;2023-03-31T11:02:45;3.35;;;1.40;;
21729;SDS011;11027;51.030;13.812;2023-03-31T11:05:40;3.55;;;1.75;;
21729;SDS011;11027;51.030;13.812;2023-03-31T11:16:32;3.55;;;1.40;;
21729;SDS011;11027;51.030;13.812;2023-03-31T11:19:21;2.75;;;1.30;;
21729;SDS011;11027;51.030;13.812;2023-03-31T11:24:56;5.43;;;1.60;;
21729;SDS011;11027;51.030;13.812;2023-03-31T11:33:14;3.78;;;1.30;;
21729;SDS011;11027;51.030;13.812;2023-03-31T11:36:12;3.17;;;1.33;;
21729;SDS011;11027;51.030;13.812;2023-03-31T11:39:03;3.50;;;1.90;;
21729;SDS011;11027;51.030;13.812;2023-03-31T11:41:49;4.30;;;2.75;;
21729;SDS011;11027;51.030;13.812;2023-03-31T11:44:17;3.05;;;1.55;;
21729;SDS011;11027;51.030;13.812;2023-03-31T11:47:02;3.95;;;1.80;;
21729;SDS011;11027;51.030;13.812;2023-03-31T11:50:10;2.88;;;1.80;;
21729;SDS011;11027;51.030;13.812;2023-03-31T11:52:36;2.47;;;1.50;;
21729;SDS011;11027;51.030;13.812;2023-03-31T11:55:11;3.58;;;1.65;;
21729;SDS011;11027;51.030;13.812;2023-03-31T11:57:49;4.07;;;1.58;;
21729;SDS011;11027;51.030;13.812;2023-03-31T12:00:37;4.67;;;1.77;;
21729;SDS011;11027;51.030;13.812;2023-03-31T12:05:32;3.15;;;1.45;;
21729;SDS011;11027;51.030;13.812;2023-03-31T12:15:45;4.07;;;1.65;;
21729;SDS011;11027;51.030;13.812;2023-03-31T12:18:19;2.20;;;1.40;;
21729;SDS011;11027;51.030;13.812;2023-03-31T12:20:52;2.17;;;1.20;;
21729;SDS011;11027;51.030;13.812;2023-03-31T12:25:56;3.30;;;1.48;;
21729;SDS011;11027;51.030;13.812;2023-03-31T12:28:38;2.42;;;1.20;;
21729;SDS011;11027;51.030;13.812;2023-03-31T12:31:06;4.38;;;1.10;;
21729;SDS011;11027;51.030;13.812;2023-03-31T12:33:39;1.73;;;1.20;;
21729;SDS011;11027;51.030;13.812;2023-03-31T12:50:52;3.75;;;1.60;;
21729;SDS011;11027;51.030;13.812;2023-03-31T12:56:10;2.20;;;1.23;;
21729;SDS011;11027;51.030;13.812;2023-03-31T12:58:39;2.35;;;1.48;;
21729;SDS011;11027;51.030;13.812;2023-03-31T13:11:17;2.83;;;1.70;;
21729;SDS011;11027;51.030;13.812;2023-03-31T13:16:48;3.22;;;1.92;;
21729;SDS011;11027;51.030;13.812;2023-03-31T13:19:30;4.25;;;2.20;;
21729;SDS011;11027;51.030;13.812;2023-03-31T13:21:58;3.05;;;2.20;;
21729;SDS011;11027;51.030;13.812;2023-03-31T13:24:26;2.88;;;2.22;;
21729;SDS011;11027;51.030;13.812;2023-03-31T13:26:53;3.05;;;2.42;;
21729;SDS011;11027;51.030;13.812;2023-03-31T13:29:39;4.25;;;2.85;;
21729;SDS011;11027;51.030;13.812;2023-03-31T13:34:51;5.38;;;3.38;;
21729;SDS011;11027;51.030;13.812;2023-03-31T13:42:51;5.18;;;3.10;;
21729;SDS011;11027;51.030;13.812;2023-03-31T13:51:12;8.05;;;2.25;;
21729;SDS011;11027;51.030;13.812;2023-03-31T13:53:46;2.53;;;2.25;;
21729;SDS011;11027;51.030;13.812;2023-03-31T14:02:46;1.85;;;0.77;;
21729;SDS011;11027;51.030;13.812;2023-03-31T14:05:23;1.88;;;0.75;;
21729;SDS011;11027;51.030;13.812;2023-03-31T14:07:54;2.80;;;0.63;;
21729;SDS011;11027;51.030;13.812;2023-03-31T14:10:30;1.27;;;0.60;;
21729;SDS011;11027;51.030;13.812;2023-03-31T14:15:38;1.42;;;0.80;;
21729;SDS011;11027;51.030;13.812;2023-03-31T14:18:27;1.50;;;0.88;;
21729;SDS011;11027;51.030;13.812;2023-03-31T14:21:07;2.72;;;0.77;;
21729;SDS011;11027;51.030;13.812;2023-03-31T14:29:26;4.28;;;0.90;;
21729;SDS011;11027;51.030;13.812;2023-03-31T14:34:52;2.25;;;0.90;;
21729;SDS011;11027;51.030;13.812;2023-03-31T14:37:27;1.48;;;0.60;;
21729;SDS011;11027;51.030;13.812;2023-03-31T14:39:53;2.22;;;0.80;;
21729;SDS011;11027;51.030;13.812;2023-03-31T14:42:22;1.27;;;0.60;;
21729;SDS011;11027;51.030;13.812;2023-03-31T14:45:01;1.50;;;0.70;;
21729;SDS011;11027;51.030;13.812;2023-03-31T14:47:28;1.55;;;0.77;;
21729;SDS011;11027;51.030;13.812;2023-03-31T14:50:01;1.65;;;1.00;;
21729;SDS011;11027;51.030;13.812;2023-03-31T14:52:35;1.90;;;0.73;;
21729;SDS011;11027;51.030;13.812;2023-03-31T14:55:01;2.60;;;0.73;;
21729;SDS011;11027;51.030;13.812;2023-03-31T14:57:28;1.20;;;0.50;;
21729;SDS011;11027;51.030;13.812;2023-03-31T14:59:56;1.65;;;0.40;;
21729;SDS011;11027;51.030;13.812;2023-03-31T15:02:33;0.73;;;0.50;;
21729;SDS011;11027;51.030;13.812;2023-03-31T15:05:04;1.00;;;0.60;;
21729;SDS011;11027;51.030;13.812;2023-03-31T15:07:33;2.90;;;0.77;;
21729;SDS011;11027;51.030;13.812;2023-03-31T15:09:59;1.20;;;0.80;;
21729;SDS011;11027;51.030;13.812;2023-03-31T15:12:26;1.63;;;0.55;;
21729;SDS011;11027;51.030;13.812;2023-03-31T15:14:56;1.27;;;0.50;;
21729;SDS011;11027;51.030;13.812;2023-03-31T15:17:30;1.45;;;0.70;;
21729;SDS011;11027;51.030;13.812;2023-03-31T15:20:00;2.17;;;0.70;;
21729;SDS011;11027;51.030;13.812;2023-03-31T15:22:44;3.88;;;0.80;;
21729;SDS011;11027;51.030;13.812;2023-03-31T15:25:13;1.08;;;0.60;;
21729;SDS011;11027;51.030;13.812;2023-03-31T15:27:42;1.13;;;0.77;;
21729;SDS011;11027;51.030;13.812;2023-03-31T15:30:18;1.80;;;0.80;;
21729;SDS011;11027;51.030;13.812;2023-03-31T15:32:45;2.53;;;0.80;;
21729;SDS011;11027;51.030;13.812;2023-03-31T15:35:26;0.98;;;0.70;;
21729;SDS011;11027;51.030;13.812;2023-03-31T15:37:55;1.83;;;0.70;;
21729;SDS011;11027;51.030;13.812;2023-03-31T15:42:55;1.73;;;0.82;;
21729;SDS011;11027;51.030;13.812;2023-03-31T15:45:44;4.00;;;0.70;;
21729;SDS011;11027;51.030;13.812;2023-03-31T15:48:13;2.45;;;0.70;;
21729;SDS011;11027;51.030;13.812;2023-03-31T15:50:43;2.78;;;0.98;;
21729;SDS011;11027;51.030;13.812;2023-03-31T15:53:22;1.67;;;0.80;;
21729;SDS011;11027;51.030;13.812;2023-03-31T15:55:55;2.35;;;1.10;;
21729;SDS011;11027;51.030;13.812;2023-03-31T15:58:24;2.55;;;0.90;;
21729;SDS011;11027;51.030;13.812;2023-03-31T16:01:17;1.67;;;0.60;;
21729;SDS011;11027;51.030;13.812;2023-03-31T16:03:43;1.58;;;0.88;;
21729;SDS011;11027;51.030;13.812;2023-03-31T16:06:32;1.83;;;0.80;;
21729;SDS011;11027;51.030;13.812;2023-03-31T16:09:18;1.48;;;0.98;;
21729;SDS011;11027;51.030;13.812;2023-03-31T16:11:49;2.70;;;1.10;;
21729;SDS011;11027;51.030;13.812;2023-03-31T16:17:03;1.60;;;1.10;;
21729;SDS011;11027;51.030;13.812;2023-03-31T16:19:43;5.07;;;1.10;;
21729;SDS011;11027;51.030;13.812;2023-03-31T16:22:13;2.60;;;1.23;;
21729;SDS011;11027;51.030;13.812;2023-03-31T16:24:43;4.60;;;1.58;;
21729;SDS011;11027;51.030;13.812;2023-03-31T16:27:08;1.60;;;1.10;;
21729;SDS011;11027;51.030;13.812;2023-03-31T16:29:35;3.42;;;1.20;;
21729;SDS011;11027;51.030;13.812;2023-03-31T16:32:05;2.92;;;0.70;;
21729;SDS011;11027;51.030;13.812;2023-03-31T16:36:58;6.10;;;1.00;;
21729;SDS011;11027;51.030;13.812;2023-03-31T16:39:23;3.53;;;1.13;;
21729;SDS011;11027;51.030;13.812;2023-03-31T16:41:48;2.10;;;0.93;;
21729;SDS011;11027;51.030;13.812;2023-03-31T16:44:14;2.63;;;1.20;;
21729;SDS011;11027;51.030;13.812;2023-03-31T16:46:39;2.60;;;1.10;;
21729;SDS011;11027;51.030;13.812;2023-03-31T16:49:05;2.47;;;1.20;;
21729;SDS011;11027;51.030;13.812;2023-03-31T16:51:30;4.63;;;1.40;;
21729;SDS011;11027;51.030;13.812;2023-03-31T16:53:55;3.10;;;1.10;;
21729;SDS011;11027;51.030;13.812;2023-03-31T16:56:22;4.05;;;1.30;;
21729;SDS011;11027;51.030;13.812;2023-03-31T16:58:47;3.22;;;1.05;;
21729;SDS011;11027;51.030;13.812;2023-03-31T17:01:13;1.52;;;0.93;;
21729;SDS011;11027;51.030;13.812;2023-03-31T17:03:38;1.80;;;0.90;;
21729;SDS011;11027;51.030;13.812;2023-03-31T17:06:09;1.70;;;0.80;;
21729;SDS011;11027;51.030;13.812;2023-03-31T17:08:36;2.58;;;0.88;;
21729;SDS011;11027;51.030;13.812;2023-03-31T17:11:04;3.15;;;1.10;;
21729;SDS011;11027;51.030;13.812;2023-03-31T17:13:30;3.90;;;1.08;;
21729;SDS011;11027;51.030;13.812;2023-03-31T17:15:56;1.70;;;0.77;;
21729;SDS011;11027;51.030;13.812;2023-03-31T17:18:23;2.45;;;0.82;;
21729;SDS011;11027;51.030;13.812;2023-03-31T17:20:48;2.85;;;0.73;;
21729;SDS011;11027;51.030;13.812;2023-03-31T17:23:13;2.22;;;1.20;;
21729;SDS011;11027;51.030;13.812;2023-03-31T17:25:45;3.10;;;1.42;;
21729;SDS011;11027;51.030;13.812;2023-03-31T17:28:11;4.82;;;1.50;;
21729;SDS011;11027;51.030;13.812;2023-03-31T17:30:37;2.55;;;1.40;;
21729;SDS011;11027;51.030;13.812;2023-03-31T17:33:03;3.97;;;1.10;;
21729;SDS011;11027;51.030;13.812;2023-03-31T17:35:29;3.28;;;1.30;;